Terminal Aerodrome Forecast
Issued by NWS Cleveland, OH

Home | Current Version | Previous Version | Text Only | Print | Product List | Glossary On
Versions: 1 2 3 4 5 6 7 8 9 10 11 12 13 14 15 16 17 18 19 20
000
FTUS41 KCLE 050530
TAFYNG
TAF
KYNG 050530Z 0506/0606 14003KT P6SM SCT250
     FM050800 14003KT 4SM BR SCT250
      TEMPO 0510/0513 2SM BR
     FM051400 18005KT P6SM SCT120 BKN250=

USA.gov is the U.S. government's official web portal to all federal, state and local government web resources and services.